createdAt,value
2022-09-22T00:00:39.332Z,12.62
2022-09-22T00:05:37.070Z,12.67
2022-09-22T00:10:34.945Z,12.58
2022-09-22T00:15:35.832Z,12.75
2022-09-22T00:20:35.798Z,12.36
2022-09-22T00:25:33.951Z,12.41
2022-09-22T00:30:32.771Z,12.53
2022-09-22T00:35:33.617Z,12.39
2022-09-22T00:40:33.050Z,12.25
2022-09-22T00:45:31.252Z,12.17
2022-09-22T00:50:31.231Z,12.27
2022-09-22T00:55:38.082Z,12.18
2022-09-22T01:00:43.013Z,12.09
2022-09-22T01:05:43.437Z,12.39
2022-09-22T01:10:44.485Z,12.32
2022-09-22T01:15:49.772Z,12.55
2022-09-22T01:21:10.610Z,12.61
2022-09-22T01:26:22.076Z,12.39
2022-09-22T01:31:29.600Z,11.96
2022-09-22T01:36:44.101Z,11.82
2022-09-22T01:42:08.806Z,11.87
2022-09-22T01:47:19.926Z,11.43
2022-09-22T01:52:22.988Z,11.60
2022-09-22T01:57:37.826Z,11.84
2022-09-22T02:02:42.657Z,11.82
2022-09-22T02:07:46.535Z,11.63
2022-09-22T02:12:55.679Z,11.74
2022-09-22T02:17:57.343Z,11.75
2022-09-22T02:22:59.415Z,11.94
2022-09-22T02:28:00.723Z,11.78
2022-09-22T02:32:59.434Z,11.90
2022-09-22T02:38:12.068Z,11.88
2022-09-22T02:43:32.993Z,11.66
2022-09-22T02:48:37.701Z,11.58
2022-09-22T02:53:37.546Z,11.28
2022-09-22T02:58:36.549Z,11.28
2022-09-22T03:03:35.866Z,11.54
2022-09-22T03:08:36.734Z,11.60
2022-09-22T03:13:37.439Z,11.48
2022-09-22T03:18:36.093Z,11.52
2022-09-22T03:23:38.245Z,11.47
2022-09-22T03:28:36.120Z,11.59
2022-09-22T03:33:35.145Z,11.41
2022-09-22T03:38:33.752Z,11.44
2022-09-22T03:43:32.956Z,11.43
2022-09-22T03:48:32.479Z,11.51
2022-09-22T03:53:33.767Z,11.37
2022-09-22T03:58:36.478Z,11.73
2022-09-22T04:03:34.911Z,11.29
2022-09-22T04:08:34.507Z,11.51
2022-09-22T04:13:33.439Z,11.69
2022-09-22T04:18:32.939Z,11.88
2022-09-22T04:23:32.180Z,11.82
2022-09-22T04:28:31.637Z,11.68
2022-09-22T04:33:30.189Z,11.97
2022-09-22T04:38:41.259Z,11.92
2022-09-22T04:43:45.507Z,12.02
2022-09-22T04:48:43.974Z,11.71
2022-09-22T04:53:49.637Z,11.74
2022-09-22T04:58:52.257Z,11.87
2022-09-22T05:03:53.642Z,11.73
2022-09-22T05:08:52.616Z,11.69
2022-09-22T05:13:51.131Z,11.69
2022-09-22T05:18:50.448Z,11.58
2022-09-22T05:23:48.926Z,11.63
2022-09-22T05:28:51.761Z,11.70
2022-09-22T05:33:49.356Z,11.83
2022-09-22T05:38:52.423Z,11.37
2022-09-22T05:43:51.939Z,11.45
2022-09-22T05:48:51.984Z,11.65
2022-09-22T05:54:05.152Z,11.70
2022-09-22T05:59:03.903Z,11.99
2022-09-22T06:04:02.888Z,12.30
2022-09-22T06:09:01.846Z,12.25
2022-09-22T06:14:00.609Z,12.07
2022-09-22T06:18:58.539Z,12.42
2022-09-22T06:23:58.721Z,12.57
2022-09-22T06:28:58.628Z,12.90
2022-09-22T06:33:58.548Z,12.88
2022-09-22T06:38:58.813Z,13.07
2022-09-22T06:43:57.489Z,13.22
2022-09-22T06:48:58.058Z,13.34
2022-09-22T06:53:59.016Z,13.95
2022-09-22T06:59:12.845Z,13.48
2022-09-22T07:04:17.920Z,14.00
2022-09-22T07:09:16.815Z,13.80
2022-09-22T07:14:18.640Z,13.98
2022-09-22T07:19:20.643Z,13.76
2022-09-22T07:24:21.678Z,13.74
2022-09-22T07:29:20.741Z,13.74
2022-09-22T07:34:23.471Z,13.65
2022-09-22T07:39:25.348Z,13.75
2022-09-22T07:44:44.869Z,13.81
2022-09-22T07:49:45.136Z,13.94
2022-09-22T07:54:43.074Z,14.02
2022-09-22T07:59:43.755Z,14.37
2022-09-22T08:04:44.045Z,14.40
2022-09-22T08:09:43.522Z,14.57
2022-09-22T08:14:45.788Z,14.67
2022-09-22T08:19:46.371Z,14.77
2022-09-22T08:24:47.014Z,14.67
2022-09-22T08:29:44.687Z,15.00
2022-09-22T08:34:44.935Z,14.97
2022-09-22T08:39:45.742Z,15.23
2022-09-22T08:45:15.892Z,15.40
2022-09-22T08:50:49.187Z,15.57
2022-09-22T08:55:54.866Z,15.61
2022-09-22T09:01:03.791Z,15.58
2022-09-22T09:06:13.039Z,15.87
2022-09-22T09:11:49.522Z,16.06
2022-09-22T09:16:57.326Z,16.24
2022-09-22T09:22:02.172Z,16.44
2022-09-22T09:27:10.044Z,16.54
2022-09-22T09:32:19.647Z,16.84
2022-09-22T09:37:19.273Z,17.17
2022-09-22T09:42:27.235Z,17.66
2022-09-22T09:47:29.395Z,17.81
2022-09-22T09:52:28.801Z,17.70
2022-09-22T09:57:29.792Z,17.70
2022-09-22T10:02:29.915Z,17.95
2022-09-22T10:12:38.262Z,17.66
2022-09-22T10:17:42.733Z,17.89
2022-09-22T10:22:42.442Z,18.16
2022-09-22T10:27:41.045Z,18.22
2022-09-22T10:33:05.276Z,18.41
2022-09-22T10:38:11.711Z,18.74
2022-09-22T10:43:26.701Z,19.08
2022-09-22T10:48:37.064Z,19.01
2022-09-22T10:54:05.956Z,19.19
2022-09-22T10:59:36.354Z,18.74
2022-09-22T11:04:54.994Z,19.14
2022-09-22T11:10:42.951Z,19.15
2022-09-22T11:22:41.744Z,19.18
2022-09-22T11:34:25.559Z,19.42
2022-09-22T11:39:37.025Z,19.46
2022-09-22T11:44:43.104Z,19.72
2022-09-22T11:50:24.243Z,19.92
2022-09-22T11:56:12.307Z,19.96
2022-09-22T12:01:33.245Z,19.40
2022-09-22T12:06:42.116Z,19.23
2022-09-22T12:11:48.370Z,19.39
2022-09-22T12:17:10.530Z,19.55
2022-09-22T12:22:51.679Z,19.79
2022-09-22T12:28:05.177Z,19.80
2022-09-22T12:33:05.281Z,20.15
2022-09-22T12:38:03.118Z,20.20
2022-09-22T12:43:01.381Z,20.33
2022-09-22T12:48:00.715Z,20.10
2022-09-22T12:53:04.734Z,20.39
2022-09-22T12:58:03.457Z,20.68
2022-09-22T13:03:02.761Z,20.72
2022-09-22T13:08:04.447Z,20.44
2022-09-22T13:13:05.655Z,20.39
2022-09-22T13:18:03.604Z,20.50
2022-09-22T13:23:14.810Z,20.52
2022-09-22T13:28:16.286Z,20.50
2022-09-22T13:33:26.009Z,20.52
2022-09-22T13:38:25.379Z,20.73
2022-09-22T13:43:38.650Z,20.77
2022-09-22T13:48:38.231Z,21.31
2022-09-22T13:53:37.522Z,21.48
2022-09-22T13:58:38.980Z,21.90
2022-09-22T14:03:38.462Z,22.53
2022-09-22T14:08:37.676Z,22.42
2022-09-22T14:13:58.382Z,22.86
2022-09-22T14:19:04.666Z,23.46
2022-09-22T14:24:03.088Z,24.03
2022-09-22T14:29:17.259Z,24.35
2022-09-22T14:34:21.353Z,23.16
2022-09-22T14:39:24.910Z,22.23
2022-09-22T14:44:50.120Z,22.68
2022-09-22T14:49:48.838Z,22.50
2022-09-22T14:54:48.429Z,21.64
2022-09-22T15:00:15.930Z,21.11
2022-09-22T15:05:29.726Z,20.52
2022-09-22T15:10:30.649Z,20.46
2022-09-22T15:15:33.071Z,20.40
2022-09-22T15:20:47.946Z,20.33
2022-09-22T15:25:47.404Z,19.80
2022-09-22T15:30:47.851Z,19.60
2022-09-22T15:35:53.310Z,19.30
2022-09-22T15:40:57.806Z,19.42
2022-09-22T15:46:01.501Z,19.45
2022-09-22T15:51:04.623Z,19.30
2022-09-22T15:56:06.900Z,19.00
2022-09-22T16:01:08.153Z,19.14
2022-09-22T16:06:12.101Z,19.12
2022-09-22T16:11:12.823Z,19.24
2022-09-22T16:16:19.547Z,18.84
2022-09-22T16:21:23.138Z,18.76
2022-09-22T16:26:30.944Z,18.91
2022-09-22T16:31:34.917Z,18.92
2022-09-22T16:36:38.107Z,18.85
2022-09-22T16:48:05.374Z,18.54
2022-09-22T16:53:09.336Z,18.49
2022-09-22T16:58:13.709Z,18.24
2022-09-22T17:03:27.010Z,18.26
2022-09-22T17:08:31.111Z,18.11
2022-09-22T17:19:24.318Z,17.73
2022-09-22T17:24:22.794Z,18.02
2022-09-22T17:29:48.706Z,18.14
2022-09-22T17:35:06.634Z,18.27
2022-09-22T17:40:09.560Z,18.37
2022-09-22T17:45:11.154Z,18.03
2022-09-22T17:50:35.634Z,18.07
2022-09-22T17:55:36.869Z,17.86
2022-09-22T18:00:39.972Z,17.37
2022-09-22T18:05:42.059Z,17.34
2022-09-22T18:10:41.377Z,17.27
2022-09-22T18:15:54.211Z,17.70
2022-09-22T18:20:55.393Z,17.66
2022-09-22T18:25:59.698Z,17.50
2022-09-22T18:30:57.828Z,17.49
2022-09-22T18:35:57.569Z,17.55
2022-09-22T18:40:55.226Z,17.32
2022-09-22T18:45:53.258Z,17.51
2022-09-22T18:50:54.423Z,17.52
2022-09-22T18:55:54.266Z,17.46
2022-09-22T19:00:52.352Z,17.42
2022-09-22T19:05:50.614Z,17.61
2022-09-22T19:10:48.422Z,17.15
2022-09-22T19:15:49.144Z,17.31
2022-09-22T19:20:49.941Z,16.91
2022-09-22T19:25:51.938Z,16.56
2022-09-22T19:30:51.262Z,16.39
2022-09-22T19:35:53.601Z,16.69
2022-09-22T19:40:56.246Z,16.86
2022-09-22T19:45:56.279Z,16.49
2022-09-22T19:50:54.956Z,16.22
2022-09-22T19:55:53.980Z,16.03
2022-09-22T20:00:55.272Z,16.28
2022-09-22T20:05:53.667Z,16.07
2022-09-22T20:11:01.837Z,16.21
2022-09-22T20:16:10.845Z,16.43
2022-09-22T20:21:17.255Z,16.47
2022-09-22T20:26:24.116Z,16.58
2022-09-22T20:31:21.532Z,15.93
2022-09-22T20:36:20.534Z,14.90
2022-09-22T20:41:22.916Z,14.87
2022-09-22T20:46:20.544Z,14.92
2022-09-22T20:51:18.136Z,14.90
2022-09-22T20:56:18.336Z,14.93
2022-09-22T21:01:17.214Z,14.84
2022-09-22T21:06:16.109Z,14.73
2022-09-22T21:11:20.405Z,14.64
2022-09-22T21:16:17.822Z,14.71
2022-09-22T21:21:21.578Z,14.35
2022-09-22T21:26:20.887Z,14.36
2022-09-22T21:31:21.573Z,14.16
2022-09-22T21:36:22.778Z,14.17
2022-09-22T21:41:25.572Z,13.93
2022-09-22T21:46:26.585Z,13.95
2022-09-22T21:51:24.365Z,14.03
2022-09-22T21:56:30.941Z,13.81
2022-09-22T22:01:31.664Z,13.77
2022-09-22T22:06:31.727Z,13.41
2022-09-22T22:11:34.498Z,13.31
2022-09-22T22:16:37.445Z,13.43
2022-09-22T22:21:35.683Z,13.51
2022-09-22T22:26:33.767Z,13.46
2022-09-22T22:31:40.040Z,13.71
2022-09-22T22:36:58.378Z,13.95
2022-09-22T22:41:56.716Z,13.92
2022-09-22T22:46:55.389Z,14.01
2022-09-22T22:51:57.399Z,13.92
2022-09-22T22:56:58.918Z,13.59
2022-09-22T23:01:58.336Z,13.40
2022-09-22T23:06:59.305Z,13.60
2022-09-22T23:12:00.789Z,13.47
2022-09-22T23:17:01.043Z,13.39
2022-09-22T23:22:13.452Z,13.43
2022-09-22T23:27:12.081Z,13.77
2022-09-22T23:32:11.724Z,13.39
2022-09-22T23:37:10.362Z,13.40
2022-09-22T23:42:09.259Z,13.39
2022-09-22T23:47:08.186Z,13.89
2022-09-22T23:52:06.605Z,13.99
2022-09-22T23:57:07.703Z,13.94
